Welcome, Guest. Please login or register.
Did you miss your activation email?

Username: Password:
Outdoor Wood Furnace Info - Statistics Center
General Statistics
Total Members: 8206
Total Posts: 76353
Total Topics: 7167
Total Categories: 6
Users Online: 7
Most Online: 165 - May 22, 2013, 12:42:02 PM
Online Today: 16
Average registrations per day: 6.88
Average posts per day: 22.32
Average topics per day: 2.58
Total Boards: 50
Latest Member: CRSJHorne
Average online per day: 24.95
Male to Female Ratio: 89.8:1
Top 10 Posters Top 10 Boards
mlappin 3845
Scott7m 3740
RSI 2858
willieG 1852
Roger2561 1607
hondaracer2oo4 1421
coolidge 1400
atvalaska 1278
MattyNH 1270
caper 1181
General Outdoor Furnace Discussion 30276
Plumbing 7383
Central Boiler 4646
General Discussion 4343
HeatMaster 3868
Portage & Main 3683
Fire Wood 3234
Home Made 2485
Equipment 2251
Electronics 2170
Top 10 Topics (by Replies) Top 10 Topics (by Views)
new heatmor and having huge issues 491
our wood stoves are horrible but epa thinks this is fine 344
Gasification wood boiler build 303
Almost 172
Wood Consumption vs. Application 144
TYPE of CHAIN SAWS USED 138
ProFab has some issues! 130
Ridgewood stoves 124
Global warming, climate change? Article 124
I'm impressed 123
Synergy Boilers? 579722
HELP! I hate my SHAVER! 467172
TAKE A STAND AGAINST MIDWEST (SYNERGY) BOILERS 446368
Synergy Boilers 98625
Gasification wood boiler build 59966
new heatmor and having huge issues 35408
Truth about Wood Doctor by president 31042
My homemade/modified forced air wood furnace 28213
Suggested Water Temperature on Boiler 28172
Used Hardy Stove info 24454
Top Topic Starters Most Time Online
coolidge 333
Roger2561 219
mlappin 108
slimjim 107
Scott7m 102
d5knapp 90
userdk 70
AirForcePOL 66
hondaracer2oo4 60
heat550 55
slimjim 89d 20h 18m
willieG 89d 16h 0m
RSI 46d 19h 43m
mlappin 36d 21h 45m
Scott7m 35d 21h 14m
koutsman 29d 14h 29m
MD20/20 26d 14h 52m
sceptre74 24d 20h 54m
CountryBoyJohn 21d 1h 58m
Roger2561 20d 16h 48m
Forum History (using forum time offset)
Yearly Summary New Topics New Posts New Members Most Online
* 2018 195 2246 2002 54
* 2017 597 7391 3268 65
* 2016 546 5025 3090 75
December 2016 75 786 262 49
November 2016 55 512 251 75
October 2016 50 389 217 39
September 2016 43 244 237 27
2016-09-01 3 15 11 18
2016-09-02 0 4 10 19
2016-09-03 0 0 5 26
2016-09-04 1 2 4 17
2016-09-05 1 16 5 23
2016-09-06 1 5 2 18
2016-09-07 1 9 5 18
2016-09-08 3 14 3 20
2016-09-09 1 18 2 21
2016-09-10 0 7 4 19
2016-09-11 0 8 7 17
2016-09-12 1 6 2 22
2016-09-13 1 1 4 18
2016-09-14 2 5 4 22
2016-09-15 1 7 4 24
2016-09-16 1 7 6 17
2016-09-17 2 8 4 20
2016-09-18 0 4 12 18
2016-09-19 1 7 11 21
2016-09-20 2 13 7 20
2016-09-21 1 3 12 19
2016-09-22 2 7 13 20
2016-09-23 1 6 17 21
2016-09-24 2 13 15 26
2016-09-25 7 27 9 24
2016-09-26 2 6 12 27
2016-09-27 1 8 10 23
2016-09-28 2 6 12 23
2016-09-29 1 3 19 26
2016-09-30 2 9 6 24
August 2016 20 105 129 44
July 2016 14 75 126 53
June 2016 11 86 151 49
May 2016 22 164 179 39
April 2016 22 222 548 51
March 2016 43 454 576 68
February 2016 74 806 123 58
January 2016 117 1182 291 52
* 2015 1317 11279 9513 67
* 2014 2461 21938 4588 110
* 2013 1171 11341 1091 165
* 2012 1863 11381 918 70
* 2011 741 7884 698 76
December 2011 113 1639 94 66
November 2011 141 1631 98 66
October 2011 123 1155 91 76
September 2011 65 726 51 39
August 2011 54 368 42 32
July 2011 25 163 21 41
June 2011 11 83 28 40
May 2011 34 276 34 37
2011-05-01 3 11 4 26
2011-05-02 2 10 1 25
2011-05-03 0 5 0 30
2011-05-04 1 7 0 37
2011-05-05 1 17 1 24
2011-05-06 10 13 3 26
2011-05-07 1 5 2 19
2011-05-08 0 2 1 33
2011-05-09 1 14 0 20
2011-05-10 0 8 4 32
2011-05-11 3 24 1 27
2011-05-12 1 17 0 27
2011-05-13 0 12 0 33
2011-05-14 0 4 0 23
2011-05-15 0 9 2 21
2011-05-16 1 12 0 25
2011-05-17 3 13 3 27
2011-05-18 0 5 1 20
2011-05-19 1 17 3 30
2011-05-20 0 3 0 32
2011-05-21 2 11 0 25
2011-05-22 0 4 0 27
2011-05-23 1 11 3 24
2011-05-24 1 11 1 21
2011-05-25 0 9 1 29
2011-05-26 1 9 1 18
2011-05-27 1 5 0 21
2011-05-28 0 0 1 19
2011-05-29 0 4 0 27
2011-05-30 0 1 0 26
2011-05-31 0 3 1 24
April 2011 49 489 37 32
2011-04-01 4 21 3 25
2011-04-02 1 24 0 27
2011-04-03 2 12 1 24
2011-04-04 2 15 0 25
2011-04-05 1 5 0 21
2011-04-06 1 10 1 25
2011-04-07 2 9 1 26
2011-04-08 1 12 0 20
2011-04-09 0 9 3 23
2011-04-10 2 13 0 22
2011-04-11 0 18 0 23
2011-04-12 1 7 1 22
2011-04-13 2 11 3 19
2011-04-14 8 29 1 24
2011-04-15 1 17 2 29
2011-04-16 1 4 1 29
2011-04-17 1 18 2 27
2011-04-18 1 33 2 28
2011-04-19 0 18 2 20
2011-04-20 1 14 1 23
2011-04-21 1 9 0 24
2011-04-22 2 30 1 29
2011-04-23 0 15 0 27
2011-04-24 2 9 2 23
2011-04-25 2 42 2 29
2011-04-26 3 20 1 28
2011-04-27 3 27 0 27
2011-04-28 2 21 2 32
2011-04-29 2 14 4 26
2011-04-30 0 3 1 24
March 2011 30 310 47 29
February 2011 38 407 65 31
January 2011 58 637 90 32
2011-01-01 0 22 4 20
2011-01-02 2 18 3 23
2011-01-03 4 35 4 21
2011-01-04 0 17 1 31
2011-01-05 1 29 1 19
2011-01-06 1 12 2 28
2011-01-07 2 19 1 21
2011-01-08 1 15 5 26
2011-01-09 2 25 1 30
2011-01-10 1 17 3 25
2011-01-11 4 25 3 26
2011-01-12 2 20 1 24
2011-01-13 1 20 5 29
2011-01-14 2 19 2 23
2011-01-15 0 19 2 25
2011-01-16 5 33 2 25
2011-01-17 2 22 2 32
2011-01-18 2 22 1 26
2011-01-19 1 30 2 22
2011-01-20 2 18 3 24
2011-01-21 2 35 4 21
2011-01-22 2 16 2 24
2011-01-23 3 16 12 27
2011-01-24 2 36 1 27
2011-01-25 4 23 7 26
2011-01-26 3 30 1 21
2011-01-27 2 17 2 23
2011-01-28 0 3 1 22
2011-01-29 2 11 4 19
2011-01-30 3 8 4 24
2011-01-31 0 5 4 21
* 2010 444 2717 284 98
* 2009 217 1823 163 20
* 2008 119 553 148 28
December 2008 17 89 7 10
November 2008 15 97 48 10
October 2008 12 82 9 15
September 2008 6 12 10 19
August 2008 2 14 4 9
July 2008 6 21 9 28
June 2008 11 60 20 21
May 2008 19 64 9 7
April 2008 9 40 3 9
March 2008 22 74 29 12
2008-03-18 1 1 2 1
2008-03-19 0 0 1 1
2008-03-20 2 2 0 3
2008-03-21 0 0 0 1
2008-03-22 0 0 0 1
2008-03-23 0 0 0 1
2008-03-24 0 0 0 2
2008-03-25 3 7 5 12
2008-03-26 5 11 7 10
2008-03-27 3 11 9 10
2008-03-28 4 20 0 6
2008-03-29 0 3 2 4
2008-03-30 1 3 1 6
2008-03-31 3 16 2 4